Time;durP1;ratioP1;P1;durP2;ratioP2;P2;SDS_P1;SDS_P2;PMS_P1;PMS_P2;Temp;Humidity;BMP_temperature;BMP_pressure;BME280_temperature;BME280_humidity;BME280_pressure;Samples;Min_cycle;Max_cycle;Signal;HPM_P1;HPM_P2
2023/09/08 00:00:18;;;;;;;6.50;5.00;;;;;;;15.90;100.00;100934.50;691654;28;1883;-63
2023/09/08 00:00:38;;;;;;;6.53;5.00;;;;;;;15.88;100.00;100933.69;692593;28;4580;-63
2023/09/08 00:00:59;;;;;;;6.63;5.03;;;;;;;15.91;100.00;100933.59;693581;28;888;-63
2023/09/08 00:01:19;;;;;;;7.20;5.30;;;;;;;15.98;100.00;100934.34;689677;28;2220;-63
2023/09/08 00:01:40;;;;;;;7.33;5.40;;;;;;;15.99;100.00;100929.03;690047;28;805;-64
2023/09/08 00:02:00;;;;;;;6.78;5.43;;;;;;;15.99;100.00;100928.13;690612;28;836;-63
2023/09/08 00:02:20;;;;;;;7.03;5.40;;;;;;;15.98;100.00;100929.91;689574;28;1692;-63
2023/09/08 00:02:41;;;;;;;6.80;5.45;;;;;;;15.94;100.00;100928.25;690565;28;912;-63
2023/09/08 00:03:01;;;;;;;6.60;5.30;;;;;;;15.89;100.00;100938.03;690479;28;962;-63
2023/09/08 00:03:22;;;;;;;6.60;5.03;;;;;;;15.91;100.00;100932.72;691745;28;4355;-63
2023/09/08 00:03:42;;;;;;;6.55;5.35;;;;;;;15.90;100.00;100931.00;693289;28;924;-63
2023/09/08 00:04:03;;;;;;;7.20;5.40;;;;;;;15.87;100.00;100931.03;692437;28;813;-63
2023/09/08 00:04:24;;;;;;;6.90;5.30;;;;;;;15.84;100.00;100932.00;692112;28;1477;-63
2023/09/08 00:04:44;;;;;;;6.93;5.57;;;;;;;15.82;100.00;100929.41;693616;28;947;-63
2023/09/08 00:05:05;;;;;;;7.00;5.57;;;;;;;15.82;100.00;100929.41;693664;28;892;-63
2023/09/08 00:05:26;;;;;;;6.72;5.65;;;;;;;15.83;100.00;100925.84;691880;28;1785;-63
2023/09/08 00:05:46;;;;;;;6.80;5.40;;;;;;;15.81;100.00;100929.41;693089;28;1284;-63
2023/09/08 00:06:06;;;;;;;7.05;5.60;;;;;;;15.80;100.00;100930.34;693230;28;731;-63
2023/09/08 00:06:27;;;;;;;7.07;5.80;;;;;;;15.80;100.00;100930.34;690786;28;4538;-63
2023/09/08 00:06:48;;;;;;;6.77;5.50;;;;;;;15.77;100.00;100933.88;693578;28;901;-63
2023/09/08 00:07:09;;;;;;;6.68;5.20;;;;;;;15.73;100.00;100933.94;692945;28;960;-64
2023/09/08 00:07:29;;;;;;;6.87;5.17;;;;;;;15.70;100.00;100934.91;692478;28;1915;-63
2023/09/08 00:07:49;;;;;;;6.43;5.13;;;;;;;15.70;100.00;100928.75;693385;28;943;-63
2023/09/08 00:08:10;;;;;;;7.20;5.37;;;;;;;15.71;100.00;100935.78;692779;28;876;-63
2023/09/08 00:08:30;;;;;;;7.00;5.68;;;;;;;15.71;100.00;100930.50;689107;28;1478;-63
2023/09/08 00:08:51;;;;;;;8.27;5.80;;;;;;;15.70;100.00;100934.03;690863;28;948;-62
2023/09/08 00:09:11;;;;;;;7.33;5.37;;;;;;;15.70;100.00;100928.75;690281;28;1131;-63
2023/09/08 00:09:31;;;;;;;6.47;5.17;;;;;;;15.71;100.00;100930.50;688926;28;4542;-63
2023/09/08 00:09:52;;;;;;;7.70;5.47;;;;;;;15.70;100.00;100934.03;690463;28;1128;-63
2023/09/08 00:10:13;;;;;;;8.60;5.90;;;;;;;15.69;100.00;100929.66;690103;28;904;-63
2023/09/08 00:10:33;;;;;;;7.15;5.30;;;;;;;15.66;100.00;100927.97;689567;28;1785;-63
2023/09/08 00:10:53;;;;;;;7.27;5.30;;;;;;;15.66;100.00;100926.19;690862;28;777;-63
2023/09/08 00:11:14;;;;;;;7.53;5.60;;;;;;;15.66;100.00;100928.84;688935;28;1469;-64
2023/09/08 00:11:34;;;;;;;7.75;5.38;;;;;;;15.68;100.00;100925.31;691062;28;778;-63
2023/09/08 00:11:54;;;;;;;9.10;5.60;;;;;;;15.66;100.00;100922.72;693527;28;880;-63
2023/09/08 00:12:15;;;;;;;7.93;5.60;;;;;;;15.64;100.00;100925.34;691593;28;1955;-63
2023/09/08 00:12:35;;;;;;;6.97;5.60;;;;;;;15.64;100.00;100924.50;692285;28;4623;-63
2023/09/08 00:12:55;;;;;;;6.50;5.27;;;;;;;15.63;100.00;100921.00;693448;28;951;-63
2023/09/08 00:13:16;;;;;;;6.30;5.28;;;;;;;15.62;100.00;100921.91;689032;28;1520;-63
2023/09/08 00:13:36;;;;;;;7.17;5.50;;;;;;;15.64;100.00;100930.63;689992;28;782;-63
2023/09/08 00:13:57;;;;;;;6.97;5.10;;;;;;;15.59;100.00;100919.34;690197;28;1019;-63
2023/09/08 00:14:17;;;;;;;6.30;5.30;;;;;;;15.59;100.00;100921.09;688571;28;1556;-63
2023/09/08 00:14:38;;;;;;;7.10;5.40;;;;;;;15.58;100.00;100922.00;690542;28;936;-63
2023/09/08 00:14:59;;;;;;;8.35;5.70;;;;;;;15.56;100.00;100921.16;690563;28;949;-63
2023/09/08 00:15:19;;;;;;;7.37;5.50;;;;;;;15.55;100.00;100924.69;691432;28;1953;-63
2023/09/08 00:15:39;;;;;;;8.10;5.40;;;;;;;15.56;100.00;100926.41;692735;28;4379;-63
2023/09/08 00:16:00;;;;;;;8.57;5.43;;;;;;;15.57;100.00;100925.53;693370;28;903;-63
2023/09/08 00:16:20;;;;;;;7.73;5.23;;;;;;;15.58;100.00;100919.38;691678;28;1747;-64
2023/09/08 00:16:42;;;;;;;6.05;4.80;;;;;;;15.56;100.00;100916.78;693431;28;884;-64
2023/09/08 00:17:04;;;;;;;7.25;5.15;;;;;;;15.56;100.00;100924.69;692987;28;987;-63
2023/09/08 00:17:24;;;;;;;7.47;5.30;;;;;;;15.57;100.00;100918.47;691904;28;1914;-63
2023/09/08 00:17:47;;;;;;;6.95;5.18;;;;;;;15.56;100.00;100914.13;693817;28;881;-64
2023/09/08 00:18:07;;;;;;;7.40;5.30;;;;;;;15.52;100.00;100919.47;693604;28;947;-63
2023/09/08 00:18:27;;;;;;;7.65;5.50;;;;;;;15.50;100.00;100922.16;691016;28;5277;-63
2023/09/08 00:18:48;;;;;;;8.10;5.53;;;;;;;15.49;100.00;100920.41;693529;28;809;-63
2023/09/08 00:19:10;;;;;;;7.10;5.60;;;;;;;15.50;100.00;100919.50;693906;28;777;-63
2023/09/08 00:19:30;;;;;;;6.97;5.38;;;;;;;15.54;100.00;100913.28;691601;28;2464;-63
2023/09/08 00:19:50;;;;;;;6.72;5.15;;;;;;;15.53;100.00;100921.22;693481;28;881;-63
2023/09/08 00:20:13;;;;;;;8.37;5.40;;;;;;;15.50;100.00;100923.00;690724;28;1468;-63
2023/09/08 00:20:34;;;;;;;7.53;5.25;;;;;;;15.52;100.00;100916.84;688845;28;2258;-62
2023/09/08 00:20:54;;;;;;;6.93;5.43;;;;;;;15.50;100.00;100927.41;690578;28;896;-63
2023/09/08 00:21:15;;;;;;;7.30;5.47;;;;;;;15.50;100.00;100915.09;689461;28;1743;-63
2023/09/08 00:21:36;;;;;;;7.45;5.30;;;;;;;15.48;100.00;100919.56;689821;28;4622;-63
2023/09/08 00:21:57;;;;;;;9.10;5.60;;;;;;;15.47;100.00;100916.97;691507;28;829;-63
2023/09/08 00:22:17;;;;;;;8.27;5.40;;;;;;;15.50;100.00;100915.09;690994;28;1481;-63
2023/09/08 00:22:37;;;;;;;7.17;5.50;;;;;;;15.52;100.00;100915.09;692991;28;915;-63
2023/09/08 00:22:58;;;;;;;6.57;5.20;;;;;;;15.52;100.00;100911.56;693101;28;1193;-63
2023/09/08 00:23:18;;;;;;;6.87;5.50;;;;;;;15.48;100.00;100914.28;692382;28;2045;-63
2023/09/08 00:23:39;;;;;;;7.63;5.57;;;;;;;15.44;100.00;100906.50;693257;28;2649;-63
2023/09/08 00:24:01;;;;;;;8.13;5.53;;;;;;;15.48;100.00;100916.06;692618;28;810;-63
2023/09/08 00:24:22;;;;;;;8.00;5.05;;;;;;;15.49;100.00;100915.13;691616;28;4590;-63
2023/09/08 00:24:42;;;;;;;6.78;5.22;;;;;;;15.44;100.00;100912.63;693029;28;1019;-63
2023/09/08 00:25:03;;;;;;;8.57;5.53;;;;;;;15.48;100.00;100913.44;693508;28;781;-63
2023/09/08 00:25:24;;;;;;;6.93;5.28;;;;;;;15.50;100.00;100908.97;692278;28;2206;-63
2023/09/08 00:25:44;;;;;;;7.93;5.80;;;;;;;15.50;100.00;100908.97;692556;28;1307;-63
2023/09/08 00:26:05;;;;;;;7.57;5.80;;;;;;;15.52;100.00;100914.22;693261;28;797;-63
2023/09/08 00:26:25;;;;;;;8.53;5.47;;;;;;;15.49;100.00;100917.78;689296;28;1903;-64
2023/09/08 00:26:45;;;;;;;7.50;5.47;;;;;;;15.47;100.00;100909.06;687400;28;1594;-63
2023/09/08 00:27:09;;;;;;;8.88;5.75;;;;;;;15.47;100.00;100911.69;687684;28;1133;-63
2023/09/08 00:27:31;;;;;;;7.68;5.43;;;;;;;15.52;100.00;100904.56;686167;28;4581;-63
2023/09/08 00:27:51;;;;;;;7.10;5.13;;;;;;;15.53;100.00;100911.53;687702;28;960;-63
2023/09/08 00:28:11;;;;;;;7.53;5.50;;;;;;;15.51;100.00;100910.72;688030;28;889;-63
2023/09/08 00:28:33;;;;;;;7.03;5.50;;;;;;;15.50;100.00;100906.34;690193;28;1861;-63
2023/09/08 00:28:53;;;;;;;7.37;5.80;;;;;;;15.51;100.00;100910.72;693094;28;869;-63
2023/09/08 00:29:14;;;;;;;7.95;5.68;;;;;;;15.52;100.00;100909.84;693260;28;872;-63
2023/09/08 00:29:35;;;;;;;8.13;5.50;;;;;;;15.53;100.00;100910.69;692250;28;1011;-63
2023/09/08 00:29:55;;;;;;;8.60;5.50;;;;;;;15.54;100.00;100917.69;690839;28;1346;-63
2023/09/08 00:30:15;;;;;;;9.32;5.60;;;;;;;15.53;100.00;100911.53;690939;28;1015;-62
2023/09/08 00:30:36;;;;;;;7.40;5.90;;;;;;;15.53;100.00;100908.91;690182;28;4350;-63
2023/09/08 00:30:57;;;;;;;7.20;5.75;;;;;;;15.53;100.00;100913.31;691652;28;801;-63
2023/09/08 00:31:18;;;;;;;7.10;5.40;;;;;;;15.53;100.00;100910.69;690611;28;1877;-63
2023/09/08 00:31:38;;;;;;;8.03;5.80;;;;;;;15.54;100.00;100910.66;689465;28;813;-63
2023/09/08 00:31:58;;;;;;;8.20;5.80;;;;;;;15.56;100.00;100919.41;688082;28;1046;-63
2023/09/08 00:32:19;;;;;;;8.13;5.47;;;;;;;15.57;100.00;100913.22;686247;28;1292;-63
2023/09/08 00:32:39;;;;;;;7.18;5.68;;;;;;;15.59;100.00;100915.81;688006;28;900;-63
2023/09/08 00:33:00;;;;;;;7.73;5.70;;;;;;;15.56;100.00;100911.50;685221;28;1251;-63
2023/09/08 00:33:22;;;;;;;7.50;5.57;;;;;;;15.55;100.00;100912.41;681305;28;4550;-63
2023/09/08 00:33:43;;;;;;;7.40;5.75;;;;;;;15.55;100.00;100907.13;686230;28;964;-63
2023/09/08 00:34:04;;;;;;;7.88;5.40;;;;;;;15.57;100.00;100912.34;682932;28;1499;-63
2023/09/08 00:34:24;;;;;;;7.55;5.50;;;;;;;15.59;100.00;100916.69;683719;28;2128;-63
2023/09/08 00:34:45;;;;;;;7.73;5.57;;;;;;;15.59;100.00;100914.06;685852;28;809;-63
2023/09/08 00:35:06;;;;;;;8.20;5.57;;;;;;;15.59;100.00;100916.69;685731;28;1137;-63
2023/09/08 00:35:27;;;;;;;7.05;5.13;;;;;;;15.59;100.00;100903.53;684804;28;2200;-63
2023/09/08 00:35:50;;;;;;;6.47;5.15;;;;;;;15.61;100.00;100914.88;686899;28;1038;-63
2023/09/08 00:36:10;;;;;;;6.55;4.95;;;;;;;15.62;100.00;100906.09;685090;28;1165;-63
2023/09/08 00:36:31;;;;;;;6.65;5.25;;;;;;;15.63;100.00;100913.09;682526;28;4453;-63
2023/09/08 00:36:51;;;;;;;7.33;5.30;;;;;;;15.61;100.00;100914.88;683179;28;1157;-63
2023/09/08 00:37:12;;;;;;;7.78;5.60;;;;;;;15.59;100.00;100914.06;684950;28;1452;-63
2023/09/08 00:37:33;;;;;;;8.20;5.55;;;;;;;15.57;100.00;100915.84;683696;28;2526;-63
2023/09/08 00:37:54;;;;;;;7.72;5.50;;;;;;;15.60;100.00;100917.56;682455;29;1361;-63
2023/09/08 00:38:14;;;;;;;7.60;5.23;;;;;;;15.59;100.00;100910.53;682687;29;834;-63
2023/09/08 00:38:35;;;;;;;6.70;5.50;;;;;;;15.58;100.00;100914.94;680110;28;2262;-64
2023/09/08 00:38:55;;;;;;;7.10;5.65;;;;;;;15.58;100.00;100916.72;685345;28;1232;-63
2023/09/08 00:39:15;;;;;;;7.60;5.30;;;;;;;15.59;100.00;100916.69;687679;28;824;-63
2023/09/08 00:39:37;;;;;;;6.55;5.22;;;;;;;15.61;100.00;100914.88;685875;28;4287;-63
2023/09/08 00:39:57;;;;;;;6.85;5.45;;;;;;;15.59;100.00;100911.44;687792;28;904;-63
2023/09/08 00:40:18;;;;;;;7.63;5.40;;;;;;;15.58;100.00;100912.31;685597;28;1585;-63
2023/09/08 00:40:38;;;;;;;7.13;5.20;;;;;;;15.58;100.00;100909.69;686407;28;947;-63
2023/09/08 00:41:00;;;;;;;6.88;5.20;;;;;;;15.58;100.00;100909.69;686472;28;1227;-63
2023/09/08 00:41:23;;;;;;;6.68;5.50;;;;;;;15.58;100.00;100911.47;685088;28;943;-63
2023/09/08 00:41:43;;;;;;;6.68;5.38;;;;;;;15.57;100.00;100915.00;687299;28;1311;-62
2023/09/08 00:42:04;;;;;;;7.03;5.30;;;;;;;15.55;100.00;100914.13;686957;28;893;-62
2023/09/08 00:42:25;;;;;;;6.80;5.28;;;;;;;15.54;100.00;100913.28;682261;28;6141;-62
2023/09/08 00:42:45;;;;;;;7.17;5.17;;;;;;;15.53;100.00;100916.81;681766;29;861;-66
2023/09/08 00:43:05;;;;;;;7.03;5.20;;;;;;;15.55;100.00;100915.03;680545;29;1329;-63
2023/09/08 00:43:26;;;;;;;6.83;5.40;;;;;;;15.56;100.00;100915.88;677197;29;1680;-63
2023/09/08 00:43:46;;;;;;;6.68;5.18;;;;;;;15.55;100.00;100915.03;677683;29;948;-63
2023/09/08 00:44:08;;;;;;;7.33;5.20;;;;;;;15.53;100.00;100905.41;677821;29;937;-63
2023/09/08 00:44:29;;;;;;;7.15;5.13;;;;;;;15.52;100.00;100915.09;680974;28;1506;-63
2023/09/08 00:44:49;;;;;;;7.40;5.70;;;;;;;15.49;100.00;100926.56;686504;28;1196;-63
2023/09/08 00:45:10;;;;;;;7.70;5.70;;;;;;;15.49;100.00;100915.13;684733;28;1331;-63
2023/09/08 00:45:30;;;;;;;6.93;5.63;;;;;;;15.49;100.00;100916.03;682471;28;4448;-63
2023/09/08 00:45:51;;;;;;;7.00;5.23;;;;;;;15.48;100.00;100913.44;683831;28;1276;-63
2023/09/08 00:46:12;;;;;;;6.93;5.20;;;;;;;15.46;100.00;100917.84;684718;28;1521;-62
2023/09/08 00:46:33;;;;;;;6.97;5.40;;;;;;;15.45;100.00;100918.75;684248;28;1706;-63
2023/09/08 00:46:53;;;;;;;7.40;5.38;;;;;;;15.46;100.00;100909.94;685238;28;829;-63
2023/09/08 00:47:14;;;;;;;9.13;5.47;;;;;;;15.45;100.00;100911.72;680762;29;881;-63
2023/09/08 00:47:35;;;;;;;8.00;5.38;;;;;;;15.45;100.00;100916.09;678802;29;1723;-63
2023/09/08 00:47:55;;;;;;;6.10;5.05;;;;;;;15.46;100.00;100910.81;682136;29;1247;-63
2023/09/08 00:48:16;;;;;;;6.20;5.20;;;;;;;15.42;100.00;100913.53;683246;28;849;-63
2023/09/08 00:48:37;;;;;;;6.35;5.32;;;;;;;15.41;100.00;100912.69;683637;28;4480;-63
2023/09/08 00:48:58;;;;;;;6.57;5.30;;;;;;;15.41;100.00;100912.69;687107;28;864;-63
2023/09/08 00:49:20;;;;;;;6.93;5.35;;;;;;;15.41;100.00;100917.97;686996;28;2298;-63
2023/09/08 00:49:40;;;;;;;6.78;5.55;;;;;;;15.40;100.00;100913.56;686040;28;940;-63
2023/09/08 00:50:04;;;;;;;6.72;5.22;;;;;;;15.39;100.00;100914.47;686516;28;933;-63
2023/09/08 00:50:24;;;;;;;7.60;5.05;;;;;;;15.37;100.00;100915.41;685278;28;2417;-63
2023/09/08 00:50:45;;;;;;;7.95;5.47;;;;;;;15.38;100.00;100917.13;687470;28;832;-63
2023/09/08 00:51:07;;;;;;;7.73;5.70;;;;;;;15.39;100.00;100914.47;687004;28;940;-63
2023/09/08 00:51:28;;;;;;;6.20;5.18;;;;;;;15.39;100.00;100910.97;683982;28;4893;-63
2023/09/08 00:51:49;;;;;;;7.10;5.40;;;;;;;15.37;100.00;100915.41;687093;28;830;-63
2023/09/08 00:52:10;;;;;;;6.90;5.22;;;;;;;15.38;100.00;100911.88;687499;28;1278;-63
2023/09/08 00:52:32;;;;;;;7.30;5.30;;;;;;;15.39;100.00;100914.47;685688;28;1733;-63
2023/09/08 00:52:52;;;;;;;7.00;5.10;;;;;;;15.38;100.00;100917.13;686536;28;927;-63
2023/09/08 00:53:13;;;;;;;7.60;5.32;;;;;;;15.36;100.00;100911.06;687969;28;1212;-63
2023/09/08 00:53:34;;;;;;;8.20;5.05;;;;;;;15.36;100.00;100914.53;686741;28;1280;-64
2023/09/08 00:53:54;;;;;;;7.83;5.20;;;;;;;15.36;100.00;100913.69;687030;28;1578;-63
2023/09/08 00:54:15;;;;;;;8.32;5.55;;;;;;;15.35;100.00;100918.06;684387;28;1259;-63
2023/09/08 00:54:35;;;;;;;7.30;5.40;;;;;;;15.33;100.00;100912.84;681745;28;4568;-63
2023/09/08 00:54:55;;;;;;;6.85;5.15;;;;;;;15.34;100.00;100919.00;681521;29;1341;-63
2023/09/08 00:55:16;;;;;;;7.07;5.33;;;;;;;15.35;100.00;100911.94;683783;28;956;-63
2023/09/08 00:55:39;;;;;;;6.75;5.60;;;;;;;15.33;100.00;100911.97;684321;28;1704;-63
2023/09/08 00:56:00;;;;;;;7.10;5.20;;;;;;;15.31;100.00;100911.13;685900;28;1221;-63
2023/09/08 00:56:21;;;;;;;7.78;5.15;;;;;;;15.31;100.00;100917.28;686621;28;980;-63
2023/09/08 00:56:42;;;;;;;7.78;5.57;;;;;;;15.31;100.00;100914.66;686965;28;821;-63
2023/09/08 00:57:03;;;;;;;7.43;5.33;;;;;;;15.31;100.00;100917.28;687918;28;931;-63
2023/09/08 00:57:26;;;;;;;6.38;4.80;;;;;;;15.30;100.00;100919.94;686525;28;4729;-63
2023/09/08 00:57:46;;;;;;;6.80;5.63;;;;;;;15.31;100.00;100916.38;689680;28;904;-62
2023/09/08 00:58:07;;;;;;;7.80;5.50;;;;;;;15.32;100.00;100916.34;692922;28;864;-63
2023/09/08 00:58:28;;;;;;;6.50;5.10;;;;;;;15.33;100.00;100918.09;688301;28;1903;-63
2023/09/08 00:58:49;;;;;;;6.55;5.25;;;;;;;15.31;100.00;100914.66;687676;28;1219;-63
2023/09/08 00:59:10;;;;;;;7.45;5.45;;;;;;;15.32;100.00;100913.72;684170;28;2050;-63
2023/09/08 00:59:32;;;;;;;7.72;5.55;;;;;;;15.33;100.00;100914.59;683868;28;1848;-63
2023/09/08 00:59:54;;;;;;;6.10;5.03;;;;;;;15.32;100.00;100911.09;684909;28;861;-63
2023/09/08 01:00:18;;;;;;;7.20;5.50;;;;;;;15.32;100.00;100913.72;682724;28;900;-63
2023/09/08 01:00:38;;;;;;;7.60;5.10;;;;;;;15.30;100.00;100912.91;685304;28;4490;-63
2023/09/08 01:00:59;;;;;;;7.85;5.22;;;;;;;15.30;100.00;100910.28;687630;28;1551;-63
2023/09/08 01:01:19;;;;;;;7.20;5.20;;;;;;;15.28;100.00;100916.47;687479;28;1825;-63
2023/09/08 01:01:40;;;;;;;7.20;5.45;;;;;;;15.27;100.00;100918.25;690310;28;896;-63
2023/09/08 01:02:04;;;;;;;6.82;5.38;;;;;;;15.29;100.00;100912.94;690664;28;1416;-63
2023/09/08 01:02:24;;;;;;;6.70;5.50;;;;;;;15.28;100.00;100912.06;688183;28;1680;-63
2023/09/08 01:02:45;;;;;;;6.85;5.38;;;;;;;15.27;100.00;100915.59;688969;28;845;-63
2023/09/08 01:03:05;;;;;;;8.53;5.40;;;;;;;15.27;100.00;100906.81;690457;28;868;-63
2023/09/08 01:03:26;;;;;;;7.95;5.20;;;;;;;15.26;100.00;100913.84;687156;28;4445;-63
2023/09/08 01:03:46;;;;;;;6.63;5.30;;;;;;;15.26;100.00;100915.63;688888;28;940;-63
2023/09/08 01:04:06;;;;;;;7.07;5.33;;;;;;;15.25;100.00;100911.25;689902;28;802;-63
2023/09/08 01:04:27;;;;;;;7.10;5.33;;;;;;;15.25;100.00;100906.00;692000;28;1872;-63
2023/09/08 01:04:48;;;;;;;7.18;5.03;;;;;;;15.24;100.00;100912.16;693039;28;879;-63
2023/09/08 01:05:09;;;;;;;7.28;5.18;;;;;;;15.23;100.00;100906.03;693218;28;1916;-63
2023/09/08 01:05:29;;;;;;;7.47;5.30;;;;;;;15.28;100.00;100908.56;691972;28;1457;-63
2023/09/08 01:05:50;;;;;;;7.72;5.22;;;;;;;15.30;100.00;100918.16;692851;28;1314;-63
2023/09/08 01:06:12;;;;;;;7.95;5.22;;;;;;;15.29;100.00;100926.97;693335;28;995;-62
2023/09/08 01:06:33;;;;;;;7.00;5.47;;;;;;;15.27;100.00;100912.97;691368;28;4532;-63
2023/09/08 01:06:56;;;;;;;7.27;5.43;;;;;;;15.24;100.00;100910.38;689897;28;857;-63
2023/09/08 01:07:19;;;;;;;6.85;5.15;;;;;;;15.24;100.00;100910.38;690816;28;880;-63
2023/09/08 01:07:41;;;;;;;7.20;5.40;;;;;;;15.24;100.00;100915.63;690524;28;1224;-63
2023/09/08 01:08:02;;;;;;;6.97;5.25;;;;;;;15.24;100.00;100910.38;690345;28;1217;-63
2023/09/08 01:08:23;;;;;;;7.50;5.40;;;;;;;15.21;100.00;100907.81;688850;28;2307;-63
2023/09/08 01:08:43;;;;;;;7.03;5.10;;;;;;;15.23;100.00;100907.78;690202;28;1197;-63
2023/09/08 01:09:05;;;;;;;6.80;5.10;;;;;;;15.23;100.00;100913.03;687423;28;1173;-63
2023/09/08 01:09:26;;;;;;;6.88;5.55;;;;;;;15.22;100.00;100911.34;683486;28;4593;-63
2023/09/08 01:09:47;;;;;;;6.05;5.15;;;;;;;15.22;100.00;100908.69;684762;28;893;-63
2023/09/08 01:10:08;;;;;;;6.45;5.10;;;;;;;15.23;100.00;100908.66;684909;28;1015;-63
2023/09/08 01:10:29;;;;;;;6.75;5.40;;;;;;;15.22;100.00;100909.56;683566;28;1805;-63
2023/09/08 01:10:49;;;;;;;8.07;5.65;;;;;;;15.19;100.00;100917.53;686481;28;833;-63
2023/09/08 01:11:09;;;;;;;6.63;5.33;;;;;;;15.19;100.00;100916.63;687686;28;892;-63
2023/09/08 01:11:32;;;;;;;7.10;5.18;;;;;;;15.18;100.00;100915.78;689377;28;1720;-63
2023/09/08 01:11:55;;;;;;;7.07;5.35;;;;;;;15.18;100.00;100914.94;689760;28;912;-63
2023/09/08 01:12:15;;;;;;;6.53;5.07;;;;;;;15.19;100.00;100911.38;687349;28;2024;-63
2023/09/08 01:12:36;;;;;;;6.53;5.13;;;;;;;15.18;100.00;100912.28;683292;28;4895;-63
2023/09/08 01:12:57;;;;;;;7.23;5.13;;;;;;;15.15;100.00;100908.81;687556;28;896;-63
2023/09/08 01:13:17;;;;;;;7.25;5.35;;;;;;;15.15;100.00;100911.44;689054;28;884;-63
2023/09/08 01:13:38;;;;;;;7.43;5.40;;;;;;;15.15;100.00;100905.31;687669;28;1557;-63
2023/09/08 01:13:58;;;;;;;8.50;5.67;;;;;;;15.14;100.00;100914.09;686471;28;1142;-63
2023/09/08 01:14:21;;;;;;;7.65;5.40;;;;;;;15.16;100.00;100912.31;685372;28;943;-63
2023/09/08 01:14:42;;;;;;;7.10;5.60;;;;;;;15.15;100.00;100907.94;688211;28;838;-63
2023/09/08 01:15:04;;;;;;;6.97;5.53;;;;;;;15.14;100.00;100912.31;690593;28;944;-62
2023/09/08 01:15:27;;;;;;;6.78;5.80;;;;;;;15.12;100.00;100906.25;688177;28;4442;-64
2023/09/08 01:15:48;;;;;;;7.20;5.38;;;;;;;15.15;100.00;100913.22;690297;28;905;-63
2023/09/08 01:16:08;;;;;;;6.28;5.00;;;;;;;15.13;100.00;100915.88;690392;28;939;-63
2023/09/08 01:16:29;;;;;;;6.97;5.40;;;;;;;15.13;100.00;100912.34;690532;28;1472;-63
2023/09/08 01:16:49;;;;;;;6.87;5.33;;;;;;;15.14;100.00;100911.47;692161;28;769;-63
2023/09/08 01:17:09;;;;;;;7.63;5.40;;;;;;;15.14;100.00;100911.47;688786;28;1236;-63
2023/09/08 01:17:30;;;;;;;6.20;5.00;;;;;;;15.15;100.00;100915.84;687056;28;1982;-63
2023/09/08 01:17:52;;;;;;;6.55;5.00;;;;;;;15.14;100.00;100908.84;686448;28;857;-64
2023/09/08 01:18:12;;;;;;;6.90;5.30;;;;;;;15.15;100.00;100915.84;690245;28;781;-63
2023/09/08 01:18:32;;;;;;;7.15;5.05;;;;;;;15.13;100.00;100909.72;688393;28;4453;-63
2023/09/08 01:18:55;;;;;;;6.87;5.13;;;;;;;15.12;100.00;100911.50;690753;28;816;-63
2023/09/08 01:19:16;;;;;;;7.82;5.38;;;;;;;15.15;100.00;100913.22;690557;28;809;-63
2023/09/08 01:19:38;;;;;;;7.15;5.30;;;;;;;15.14;100.00;100912.31;685727;28;1878;-63
2023/09/08 01:20:05;;;;;;;7.40;5.10;;;;;;;15.12;100.00;100910.66;687712;28;2711;-63
2023/09/08 01:20:35;;;;;;;6.90;5.38;;;;;;;15.11;100.00;100911.53;686490;28;2257;-63
2023/09/08 01:21:21;;;;;;;7.38;5.25;;;;;;;15.13;100.00;100912.34;687355;28;828;-63
2023/09/08 01:22:19;;;;;;;7.95;5.47;;;;;;;15.12;100.00;100911.50;685451;28;4961;-63
2023/09/08 01:23:11;;;;;;;7.85;5.43;;;;;;;15.13;100.00;100917.63;690044;28;931;-63
2023/09/08 01:23:59;;;;;;;6.97;5.60;;;;;;;15.13;100.00;100915.00;689408;28;1457;-63
2023/09/08 01:24:37;;;;;;;7.07;5.50;;;;;;;15.12;100.00;100910.66;692250;28;1864;-63
2023/09/08 01:25:26;;;;;;;6.68;5.10;;;;;;;15.11;100.00;100917.66;688455;28;5293;-62
2023/09/08 01:25:54;;;;;;;8.10;5.72;;;;;;;15.11;100.00;100916.81;689764;28;924;-63
2023/09/08 01:26:20;;;;;;;7.20;5.40;;;;;;;15.10;100.00;100915.91;689681;28;992;-63
2023/09/08 01:26:41;;;;;;;7.18;5.70;;;;;;;15.11;100.00;100909.75;687481;28;1184;-63
2023/09/08 01:27:03;;;;;;;7.90;5.15;;;;;;;15.11;100.00;100911.53;688443;28;844;-63
2023/09/08 01:27:26;;;;;;;7.45;5.20;;;;;;;15.11;100.00;100919.44;687493;28;4496;-63
2023/09/08 01:27:52;;;;;;;7.20;5.35;;;;;;;15.10;100.00;100917.69;688550;28;939;-63
2023/09/08 01:28:15;;;;;;;7.00;5.60;;;;;;;15.08;100.00;100914.25;688750;28;929;-64
2023/09/08 01:28:36;;;;;;;6.93;5.43;;;;;;;15.08;100.00;100916.88;687936;28;1980;-63
2023/09/08 01:28:57;;;;;;;8.23;5.20;;;;;;;15.08;100.00;100919.50;690308;28;975;-63
2023/09/08 01:29:19;;;;;;;7.53;4.97;;;;;;;15.08;100.00;100908.97;689896;28;798;-63
2023/09/08 01:29:41;;;;;;;6.88;5.22;;;;;;;15.03;100.00;100916.09;683851;28;1863;-63
2023/09/08 01:30:04;;;;;;;7.38;5.20;;;;;;;15.02;100.00;100927.50;683742;28;940;-64
2023/09/08 01:30:28;;;;;;;8.00;5.32;;;;;;;15.02;100.00;100920.47;684579;28;4629;-63
2023/09/08 01:30:49;;;;;;;6.40;5.30;;;;;;;15.04;100.00;100915.19;687826;28;916;-63
2023/09/08 01:31:10;;;;;;;7.40;5.57;;;;;;;15.04;100.00;100917.81;687336;28;1192;-63
2023/09/08 01:31:30;;;;;;;7.57;5.40;;;;;;;15.04;100.00;100921.31;689092;28;2361;-64
2023/09/08 01:31:52;;;;;;;6.85;5.40;;;;;;;15.03;100.00;100916.09;691126;28;1250;-63
2023/09/08 01:32:13;;;;;;;6.57;5.38;;;;;;;15.00;100.00;100919.63;688255;28;1261;-63
2023/09/08 01:32:35;;;;;;;6.70;5.37;;;;;;;15.00;100.00;100918.78;686096;28;2266;-63
2023/09/08 01:32:56;;;;;;;6.80;5.43;;;;;;;14.97;100.00;100923.19;687428;28;977;-63
2023/09/08 01:33:17;;;;;;;6.50;5.28;;;;;;;15.00;100.00;100921.41;687706;28;904;-63
2023/09/08 01:33:40;;;;;;;6.80;5.22;;;;;;;15.01;100.00;100925.75;686794;28;4515;-63
2023/09/08 01:34:01;;;;;;;8.05;5.20;;;;;;;14.98;100.00;100921.41;688179;28;908;-63
2023/09/08 01:34:22;;;;;;;6.30;5.03;;;;;;;14.97;100.00;100917.94;687013;28;1795;-63
2023/09/08 01:34:42;;;;;;;6.80;5.40;;;;;;;14.98;100.00;100924.03;688481;28;885;-63
2023/09/08 01:35:04;;;;;;;7.13;5.57;;;;;;;14.94;100.00;100918.00;687788;28;1333;-63
2023/09/08 01:35:27;;;;;;;7.00;5.50;;;;;;;14.94;100.00;100918.00;683095;28;1818;-63
2023/09/08 01:35:48;;;;;;;7.22;5.35;;;;;;;14.96;100.00;100921.44;686740;28;2250;-63
2023/09/08 01:36:08;;;;;;;7.70;5.05;;;;;;;14.94;100.00;100919.78;687507;28;786;-63
2023/09/08 01:36:29;;;;;;;6.97;5.30;;;;;;;14.89;100.00;100922.47;684844;28;4633;-63
2023/09/08 01:36:49;;;;;;;7.03;5.70;;;;;;;14.89;100.00;100914.56;685801;28;797;-63
2023/09/08 01:37:09;;;;;;;7.00;5.40;;;;;;;14.91;100.00;100918.06;683865;28;862;-63
2023/09/08 01:37:30;;;;;;;8.17;5.23;;;;;;;14.89;100.00;100919.84;682000;28;1954;-63
2023/09/08 01:37:50;;;;;;;8.70;5.65;;;;;;;14.92;100.00;100918.91;683870;28;908;-63
2023/09/08 01:38:11;;;;;;;8.00;5.57;;;;;;;14.91;100.00;100917.16;684640;28;917;-63
2023/09/08 01:38:33;;;;;;;8.03;5.60;;;;;;;14.90;100.00;100915.47;679204;28;1746;-63
2023/09/08 01:38:54;;;;;;;7.00;5.45;;;;;;;14.90;100.00;100913.69;681544;29;1019;-63
2023/09/08 01:39:14;;;;;;;7.10;5.50;;;;;;;14.91;100.00;100920.69;683967;28;971;-63
2023/09/08 01:39:35;;;;;;;6.93;5.10;;;;;;;14.90;100.00;100920.72;684822;28;4516;-64
2023/09/08 01:39:56;;;;;;;6.75;5.20;;;;;;;14.88;100.00;100923.34;685442;28;1983;-62
2023/09/08 01:40:16;;;;;;;6.97;5.20;;;;;;;14.91;100.00;100915.44;686093;28;967;-64
2023/09/08 01:40:37;;;;;;;7.13;5.30;;;;;;;14.90;100.00;100921.56;688991;28;1866;-63
2023/09/08 01:40:57;;;;;;;7.78;5.50;;;;;;;14.88;100.00;100910.19;687757;28;1149;-63
2023/09/08 01:41:18;;;;;;;8.13;5.70;;;;;;;14.88;100.00;100918.09;687515;28;836;-63
2023/09/08 01:41:38;;;;;;;7.85;5.63;;;;;;;14.88;100.00;100912.81;685842;28;1763;-63
2023/09/08 01:41:59;;;;;;;6.57;5.20;;;;;;;14.86;100.00;100911.16;687779;28;971;-63
2023/09/08 01:42:19;;;;;;;8.60;5.30;;;;;;;14.84;100.00;100911.16;687989;28;983;-63